Time;durP1;ratioP1;P1;durP2;ratioP2;P2;SDS_P1;SDS_P2;PMS_P1;PMS_P2;Temp;Humidity;BMP_temperature;BMP_pressure;BME280_temperature;BME280_humidity;BME280_pressure;Samples;Min_cycle;Max_cycle;Signal;HPM_P1;HPM_P2
2022/04/18 00:00:43;;;;;;;13.43;10.55;;;;;;;;;;5079206;28;20033;-71
2022/04/18 00:03:12;;;;;;;12.20;9.38;;;;;;;;;;5081798;28;20461;-71
2022/04/18 00:05:38;;;;;;;14.23;9.45;;;;;;;;;;5082942;28;20040;-71
2022/04/18 00:08:04;;;;;;;12.38;10.27;;;;;;;;;;5057512;28;20043;-71
2022/04/18 00:10:31;;;;;;;14.60;9.95;;;;;;;;;;5059467;28;20043;-71
2022/04/18 00:12:57;;;;;;;15.52;9.77;;;;;;;;;;5083658;28;20420;-71
2022/04/18 00:15:24;;;;;;;10.82;8.98;;;;;;;;;;5066425;28;20509;-71
2022/04/18 00:17:50;;;;;;;12.95;10.05;;;;;;;;;;5074724;28;20481;-71
2022/04/18 00:20:16;;;;;;;16.80;11.18;;;;;;;;;;5059367;28;20043;-71
2022/04/18 00:22:44;;;;;;;13.80;9.88;;;;;;;;;;5079440;28;20518;-71
2022/04/18 00:25:13;;;;;;;12.00;9.20;;;;;;;;;;5061807;28;20165;-71
2022/04/18 00:27:39;;;;;;;14.70;10.52;;;;;;;;;;5076738;28;20124;-71
2022/04/18 00:30:05;;;;;;;18.77;10.88;;;;;;;;;;5046131;28;20044;-71
2022/04/18 00:32:34;;;;;;;17.15;10.65;;;;;;;;;;5066611;28;20079;-71
2022/04/18 00:35:02;;;;;;;12.50;10.02;;;;;;;;;;5049039;28;20032;-71
2022/04/18 00:37:28;;;;;;;14.93;11.13;;;;;;;;;;5058613;28;20097;-71
2022/04/18 00:40:06;;;;;;;15.10;9.70;;;;;;;;;;5060694;28;20618;-71
2022/04/18 00:42:32;;;;;;;15.45;10.73;;;;;;;;;;5062551;28;20066;-71
2022/04/18 00:44:58;;;;;;;14.55;10.68;;;;;;;;;;5067298;28;20040;-71
2022/04/18 00:47:24;;;;;;;13.25;10.52;;;;;;;;;;5059793;28;20514;-71
2022/04/18 00:49:51;;;;;;;15.63;10.25;;;;;;;;;;5063546;28;20087;-71
2022/04/18 00:52:17;;;;;;;13.57;10.82;;;;;;;;;;5061613;28;20048;-71
2022/04/18 00:54:43;;;;;;;16.23;10.35;;;;;;;;;;5069514;28;20097;-71
2022/04/18 00:57:12;;;;;;;15.00;10.32;;;;;;;;;;5064840;28;20511;-72
2022/04/18 00:59:38;;;;;;;16.92;11.15;;;;;;;;;;5066634;28;20056;-71
2022/04/18 01:02:05;;;;;;;16.27;10.60;;;;;;;;;;5043500;28;20489;-71
2022/04/18 01:04:32;;;;;;;14.57;10.93;;;;;;;;;;5039713;28;20044;-71
2022/04/18 01:07:02;;;;;;;16.27;11.20;;;;;;;;;;5060954;28;20047;-71
2022/04/18 01:09:29;;;;;;;18.10;11.95;;;;;;;;;;5063973;28;20083;-71
2022/04/18 01:11:55;;;;;;;17.10;10.95;;;;;;;;;;5074832;28;20036;-71
2022/04/18 01:14:21;;;;;;;14.30;10.85;;;;;;;;;;5063809;28;20051;-71
2022/04/18 01:16:47;;;;;;;14.60;10.40;;;;;;;;;;5065467;28;20048;-71
2022/04/18 01:19:14;;;;;;;16.48;12.70;;;;;;;;;;5050129;28;20047;-71
2022/04/18 01:21:40;;;;;;;18.88;11.45;;;;;;;;;;5072636;28;20056;-71
2022/04/18 01:28:58;;;;;;;14.07;11.18;;;;;;;;;;5080301;28;20517;-71
2022/04/18 01:29:37;;;;;;;17.50;12.38;;;10.20;59.10;;;;;;5044526;28;20040;-71
2022/04/18 01:32:03;;;;;;;14.20;10.48;;;8.80;63.00;;;;;;5078564;28;20516;-71
2022/04/18 01:34:29;;;;;;;12.90;10.75;;;8.70;63.10;;;;;;5080769;28;20528;-71
2022/04/18 01:36:55;;;;;;;15.02;11.55;;;8.70;63.10;;;;;;5060636;28;20111;-71
2022/04/18 01:39:21;;;;;;;13.30;10.60;;;;;;;;;;5039049;28;20044;-71
2022/04/18 01:41:47;;;;;;;17.02;11.35;;;;;;;;;;5086826;28;20402;-70
2022/04/18 01:44:13;;;;;;;14.68;11.48;;;;;;;;;;5054282;28;20070;-71
2022/04/18 01:46:39;;;;;;;14.90;11.10;;;;;;;;;;5049375;28;20044;-71
2022/04/18 01:49:06;;;;;;;16.77;12.25;;;;;;;;;;5058234;28;20460;-71
2022/04/18 01:51:32;;;;;;;17.40;12.63;;;;;;;;;;5071392;28;20079;-71
2022/04/18 01:53:58;;;;;;;16.13;10.95;;;;;;;;;;5083462;28;20126;-71
2022/04/18 01:56:25;;;;;;;14.82;10.93;;;;;;;;;;5079015;28;20086;-71
2022/04/18 01:58:50;;;;;;;15.00;11.85;;;8.70;63.10;;;;;;5061338;28;20375;-71
2022/04/18 02:01:17;;;;;;;17.10;11.65;;;8.40;63.80;;;;;;5069237;28;20051;-71
2022/04/18 02:03:43;;;;;;;16.92;11.40;;;8.40;63.90;;;;;;5057654;28;20044;-71
2022/04/18 02:06:10;;;;;;;14.80;10.70;;;8.40;64.10;;;;;;5065575;28;20044;-71
2022/04/18 02:08:36;;;;;;;16.23;11.75;;;8.30;64.30;;;;;;5058653;28;20039;-72
2022/04/18 02:11:04;;;;;;;17.23;11.98;;;8.30;64.50;;;;;;5088879;28;20132;-71
2022/04/18 02:13:30;;;;;;;15.98;11.07;;;8.30;64.60;;;;;;5063697;28;20127;-71
2022/04/18 02:15:57;;;;;;;14.70;10.95;;;8.30;64.60;;;;;;5063859;28;20123;-71
2022/04/18 02:18:24;;;;;;;14.63;11.80;;;8.30;64.90;;;;;;5078736;28;20036;-70
2022/04/18 02:20:49;;;;;;;17.80;12.13;;;8.30;65.00;;;;;;5084965;28;20068;-71
2022/04/18 02:23:15;;;;;;;14.05;10.88;;;8.30;65.10;;;;;;5084987;28;20083;-71
2022/04/18 02:25:41;;;;;;;15.77;11.50;;;8.30;65.20;;;;;;5088003;28;20461;-70
2022/04/18 02:28:07;;;;;;;16.30;11.50;;;8.30;65.00;;;;;;5054689;28;20040;-71
2022/04/18 02:30:33;;;;;;;16.73;11.30;;;8.30;65.10;;;;;;5091645;28;20135;-71
2022/04/18 02:32:59;;;;;;;19.58;11.63;;;8.30;65.00;;;;;;5060631;28;20065;-71
2022/04/18 02:35:26;;;;;;;16.85;11.20;;;8.30;65.00;;;;;;5085601;28;20040;-71
2022/04/18 02:37:53;;;;;;;16.17;10.88;;;8.30;65.20;;;;;;5071056;28;20037;-71
2022/04/18 02:40:20;;;;;;;16.10;11.07;;;8.20;65.50;;;;;;5082837;28;20075;-71
2022/04/18 02:42:46;;;;;;;17.45;11.68;;;8.20;65.90;;;;;;5082095;28;20078;-71
2022/04/18 02:45:14;;;;;;;16.48;11.10;;;8.20;66.30;;;;;;5075848;28;20040;-71
2022/04/18 02:47:40;;;;;;;14.50;10.70;;;;;;;;;;5073316;28;20090;-71
2022/04/18 02:50:07;;;;;;;13.40;10.27;;;;;;;;;;5069481;28;20046;-71
2022/04/18 02:52:34;;;;;;;14.98;11.38;;;;;;;;;;5086546;28;20058;-71
2022/04/18 02:55:00;;;;;;;14.93;10.48;;;;;;;;;;5085549;28;20056;-70
2022/04/18 02:57:26;;;;;;;14.50;10.23;;;;;;;;;;5053877;28;20554;-71
2022/04/18 02:59:53;;;;;;;14.43;11.80;;;;;;;;;;5079470;28;20045;-71
2022/04/18 03:02:19;;;;;;;15.73;10.85;;;;;;;;;;5059955;28;20040;-71
2022/04/18 03:04:45;;;;;;;17.73;11.73;;;;;;;;;;5078236;28;20044;-70
2022/04/18 03:07:11;;;;;;;16.55;11.80;;;;;;;;;;5044131;28;20046;-70
2022/04/18 03:09:37;;;;;;;16.63;11.30;;;8.10;67.10;;;;;;5054135;28;20095;-70
2022/04/18 03:12:03;;;;;;;16.35;11.88;;;7.80;67.80;;;;;;5081947;28;20487;-71
2022/04/18 03:14:29;;;;;;;15.27;11.05;;;7.80;68.10;;;;;;5085047;28;20052;-71
2022/04/18 03:16:56;;;;;;;17.15;11.27;;;7.80;68.10;;;;;;5060517;28;20048;-70
2022/04/18 03:19:22;;;;;;;22.50;11.85;;;7.80;68.20;;;;;;5052839;28;20151;-71
2022/04/18 03:21:48;;;;;;;16.77;12.20;;;7.80;68.30;;;;;;5080275;28;20120;-70
2022/04/18 03:24:14;;;;;;;13.13;10.60;;;7.80;68.50;;;;;;5079541;28;20045;-70
2022/04/18 03:26:40;;;;;;;18.98;11.10;;;7.70;68.60;;;;;;5078475;28;20528;-71
2022/04/18 03:29:06;;;;;;;18.20;11.50;;;7.70;68.60;;;;;;5073173;28;20040;-70
2022/04/18 03:31:32;;;;;;;15.63;11.70;;;7.70;68.70;;;;;;5070915;28;20032;-70
2022/04/18 03:33:58;;;;;;;14.77;11.13;;;7.70;68.90;;;;;;5055080;28;20131;-70
2022/04/18 03:41:52;;;;;;;16.08;11.55;;;7.60;69.30;;;;;;5080474;28;20044;-70
2022/04/18 03:44:18;;;;;;;13.77;11.07;;;7.60;69.30;;;;;;5072478;28;20406;-70
2022/04/18 03:46:44;;;;;;;17.25;11.55;;;7.50;69.50;;;;;;5063979;28;20056;-70
2022/04/18 03:49:10;;;;;;;24.40;12.27;;;7.50;69.70;;;;;;5071338;28;20441;-70
2022/04/18 03:51:36;;;;;;;14.80;11.15;;;7.50;69.70;;;;;;5051247;28;20504;-70
2022/04/18 03:54:02;;;;;;;17.08;12.60;;;7.50;69.90;;;;;;5066015;28;20137;-70
2022/04/18 03:56:28;;;;;;;15.85;12.10;;;7.50;69.70;;;;;;5063306;28;20506;-70
2022/04/18 03:58:54;;;;;;;16.48;11.95;;;7.50;69.70;;;;;;5085947;28;20040;-70
2022/04/18 04:01:19;;;;;;;14.70;11.18;;;7.50;69.60;;;;;;5067925;28;20183;-70
2022/04/18 04:03:45;;;;;;;18.65;12.73;;;7.50;69.50;;;;;;5065563;28;20051;-70
2022/04/18 04:06:11;;;;;;;16.50;12.63;;;7.50;69.40;;;;;;5057911;28;20174;-70
2022/04/18 04:08:37;;;;;;;15.60;11.43;;;7.50;69.30;;;;;;5058660;28;20521;-71
2022/04/18 04:11:03;;;;;;;17.85;11.75;;;7.40;69.10;;;;;;5046193;28;20044;-71
2022/04/18 04:13:28;;;;;;;14.73;11.93;;;7.50;69.10;;;;;;5039242;28;20037;-70
2022/04/18 04:15:57;;;;;;;15.05;11.68;;;7.40;69.00;;;;;;5080285;28;20204;-70
2022/04/18 04:18:24;;;;;;;18.20;12.27;;;7.40;69.20;;;;;;5076823;28;20047;-70
2022/04/18 04:20:50;;;;;;;13.68;11.00;;;7.40;69.30;;;;;;5044746;28;20055;-70
2022/04/18 04:23:16;;;;;;;15.68;13.02;;;7.40;69.20;;;;;;5062482;28;20779;-71
2022/04/18 04:25:42;;;;;;;16.33;11.40;;;7.40;69.40;;;;;;5066789;28;20036;-70
2022/04/18 04:28:07;;;;;;;14.10;11.40;;;7.40;69.20;;;;;;5081602;28;20031;-70
2022/04/18 04:30:33;;;;;;;14.15;11.68;;;7.40;69.20;;;;;;5084989;28;20054;-70
2022/04/18 04:32:59;;;;;;;19.15;12.63;;;7.40;69.10;;;;;;5080536;28;20036;-70
2022/04/18 04:35:25;;;;;;;18.05;11.90;;;7.40;69.20;;;;;;5085691;28;20125;-70
2022/04/18 04:37:51;;;;;;;17.15;12.23;;;7.40;69.20;;;;;;5084632;28;20036;-70
2022/04/18 04:40:17;;;;;;;14.32;11.43;;;;;;;;;;5064782;28;20128;-70
2022/04/18 04:42:43;;;;;;;15.45;11.52;;;;;;;;;;5086437;28;20044;-70
2022/04/18 04:45:09;;;;;;;15.35;12.50;;;;;;;;;;5066065;28;20044;-71
2022/04/18 04:47:35;;;;;;;16.33;12.77;;;;;;;;;;5082039;28;20127;-70
2022/04/18 04:50:01;;;;;;;16.67;11.80;;;;;;;;;;5082968;28;20043;-70
2022/04/18 04:52:28;;;;;;;18.73;12.82;;;;;;;;;;5046737;28;20052;-70
2022/04/18 04:54:54;;;;;;;17.00;12.77;;;;;;;;;;5047928;28;20087;-70
2022/04/18 04:57:20;;;;;;;17.77;12.45;;;;;;;;;;5054339;28;20117;-70
2022/04/18 04:59:46;;;;;;;15.25;12.95;;;;;;;;;;5076124;28;20058;-70
2022/04/18 05:02:12;;;;;;;17.30;12.60;;;;;;;;;;5078660;28;20050;-71
2022/04/18 05:04:38;;;;;;;14.48;12.57;;;;;;;;;;5058002;28;20044;-70
2022/04/18 05:07:05;;;;;;;15.02;12.07;;;;;;;;;;5061797;28;20051;-70
2022/04/18 05:09:31;;;;;;;15.50;12.55;;;;;;;;;;5053886;28;20048;-71
2022/04/18 05:11:57;;;;;;;17.75;11.55;;;;;;;;;;5061890;28;20044;-70
2022/04/18 05:14:23;;;;;;;15.38;12.00;;;;;;;;;;5076996;28;20192;-70
2022/04/18 05:16:50;;;;;;;16.88;12.32;;;;;;;;;;5058407;28;20050;-70
2022/04/18 05:19:16;;;;;;;17.23;12.02;;;;;;;;;;5056736;28;20089;-70
2022/04/18 05:21:42;;;;;;;14.55;12.00;;;;;;;;;;5060556;28;20055;-70
2022/04/18 05:24:08;;;;;;;15.73;11.73;;;;;;;;;;5055883;28;20043;-70
2022/04/18 05:26:35;;;;;;;17.50;13.48;;;;;;;;;;5081258;28;20417;-70
2022/04/18 05:29:01;;;;;;;16.58;12.13;;;;;;;;;;5046290;28;20119;-70
2022/04/18 05:31:27;;;;;;;21.10;13.00;;;;;;;;;;5056524;28;20534;-70
2022/04/18 05:33:53;;;;;;;16.63;12.88;;;;;;;;;;5075133;28;20072;-70
2022/04/18 05:36:20;;;;;;;17.70;12.82;;;;;;;;;;5064001;28;20452;-70
2022/04/18 05:38:46;;;;;;;14.20;11.57;;;;;;;;;;5076468;28;20043;-70
2022/04/18 05:41:12;;;;;;;15.88;12.68;;;;;;;;;;5059489;28;20504;-70
2022/04/18 05:43:38;;;;;;;20.50;13.43;;;;;;;;;;5078632;28;20087;-71
2022/04/18 05:46:04;;;;;;;18.42;12.02;;;;;;;;;;5083786;28;20043;-70
2022/04/18 05:48:30;;;;;;;17.05;12.18;;;;;;;;;;5062536;28;20095;-70
2022/04/18 05:50:57;;;;;;;16.98;12.63;;;;;;;;;;5084670;28;20032;-70
2022/04/18 05:53:26;;;;;;;17.25;12.40;;;;;;;;;;5079439;28;20060;-70
2022/04/18 05:55:53;;;;;;;16.60;11.80;;;;;;;;;;5084485;28;20127;-70
2022/04/18 05:58:19;;;;;;;17.35;12.35;;;;;;;;;;5046645;28;20051;-71
2022/04/18 06:00:45;;;;;;;15.77;12.52;;;;;;;;;;5080723;28;20147;-70
2022/04/18 06:03:11;;;;;;;18.67;11.75;;;;;;;;;;5062952;28;20040;-70
2022/04/18 06:05:38;;;;;;;16.42;11.60;;;;;;;;;;5065599;28;20370;-71
2022/04/18 06:08:05;;;;;;;16.75;12.95;;;;;;;;;;5050583;28;20040;-71
2022/04/18 06:10:31;;;;;;;16.00;11.95;;;;;;;;;;5086047;28;20036;-71
2022/04/18 06:12:57;;;;;;;16.33;12.38;;;;;;;;;;5066910;28;20230;-71
2022/04/18 06:15:23;;;;;;;16.45;11.85;;;;;;;;;;5065946;28;20600;-71
2022/04/18 06:17:49;;;;;;;14.48;11.35;;;;;;;;;;5059895;28;20043;-70
2022/04/18 06:20:16;;;;;;;15.07;11.80;;;;;;;;;;5062158;28;20437;-70
2022/04/18 06:22:42;;;;;;;15.82;12.02;;;;;;;;;;5062079;28;20511;-71
2022/04/18 06:25:08;;;;;;;17.23;12.98;;;;;;;;;;5056719;28;20048;-71
2022/04/18 06:27:34;;;;;;;14.88;11.88;;;;;;;;;;5059300;28;20054;-71
2022/04/18 06:30:00;;;;;;;15.88;12.45;;;;;;;;;;5062120;28;20044;-71
2022/04/18 06:32:27;;;;;;;15.13;11.68;;;;;;;;;;5081542;28;20445;-71
2022/04/18 06:34:54;;;;;;;16.58;12.48;;;;;;;;;;5044005;28;20171;-71
2022/04/18 06:37:20;;;;;;;18.60;12.50;;;;;;;;;;5054914;28;20044;-71
2022/04/18 06:39:46;;;;;;;17.38;11.77;;;;;;;;;;5031949;28;20043;-71
2022/04/18 06:42:12;;;;;;;16.17;11.13;;;;;;;;;;5047999;28;20440;-70
2022/04/18 06:44:38;;;;;;;15.93;10.57;;;;;;;;;;5029088;28;20311;-71
2022/04/18 06:47:05;;;;;;;14.23;11.98;;;;;;;;;;5063976;28;20121;-71
2022/04/18 06:49:31;;;;;;;15.23;12.13;;;;;;;;;;5077691;28;20047;-71
2022/04/18 06:51:57;;;;;;;15.38;11.77;;;;;;;;;;5060069;28;20412;-70
2022/04/18 06:54:23;;;;;;;17.23;11.40;;;;;;;;;;5063507;28;20092;-71
2022/04/18 06:56:59;;;;;;;12.60;10.30;;;;;;;;;;5081649;28;20051;-71
2022/04/18 06:59:25;;;;;;;13.88;9.82;;;;;;;;;;5059391;28;20055;-71
2022/04/18 07:01:51;;;;;;;15.32;9.68;;;;;;;;;;5063368;28;20599;-71
2022/04/18 07:04:17;;;;;;;12.40;10.65;;;;;;;;;;5063541;28;20123;-71
2022/04/18 07:06:43;;;;;;;15.25;10.77;;;;;;;;;;5062240;28;20044;-64
2022/04/18 07:09:10;;;;;;;18.05;11.30;;;;;;;;;;5058429;28;20039;-71
2022/04/18 07:11:36;;;;;;;12.82;10.05;;;;;;;;;;5066581;28;20156;-71
2022/04/18 07:14:02;;;;;;;14.60;10.45;;;;;;;;;;5059844;28;20052;-71
2022/04/18 07:16:32;;;;;;;12.77;10.40;;;;;;;;;;5086287;28;20057;-71
2022/04/18 07:18:59;;;;;;;14.52;10.35;;;;;;;;;;5059055;28;20082;-71
2022/04/18 07:21:25;;;;;;;13.27;9.10;;;;;;;;;;5058247;28;20407;-71
2022/04/18 07:23:52;;;;;;;12.13;9.57;;;;;;;;;;5081841;28;20094;-71
2022/04/18 07:26:19;;;;;;;11.35;9.38;;;;;;;;;;5058234;28;20041;-70
2022/04/18 07:28:45;;;;;;;17.95;10.68;;;;;;;;;;5075644;28;20040;-70
2022/04/18 07:31:12;;;;;;;13.60;9.27;;;;;;;;;;5057461;28;20611;-70
2022/04/18 07:33:38;;;;;;;10.35;8.73;;;;;;;;;;5057016;28;20466;-70
2022/04/18 07:36:05;;;;;;;13.13;8.95;;;;;;;;;;5064073;28;20040;-70
2022/04/18 07:38:49;;;;;;;14.88;9.18;;;;;;;;;;5053754;28;20055;-70
2022/04/18 07:41:16;;;;;;;13.82;9.45;;;;;;;;;;5081528;28;20047;-70
2022/04/18 07:43:43;;;;;;;11.00;8.63;;;;;;;;;;5077904;28;20562;-71
2022/04/18 07:46:09;;;;;;;9.80;8.00;;;;;;;;;;5044723;28;20053;-71
2022/04/18 07:48:35;;;;;;;12.50;9.38;;;;;;;;;;5038969;28;20044;-71
2022/04/18 07:53:46;;;;;;;11.68;9.43;;;;;;;;;;5069598;28;188302;-70
2022/04/18 07:56:13;;;;;;;15.25;9.43;;;;;;;;;;5061979;28;20386;-71
2022/04/18 07:58:39;;;;;;;11.00;7.90;;;;;;;;;;5080900;28;20044;-70
2022/04/18 08:01:05;;;;;;;10.35;8.20;;;;;;;;;;5080739;28;20047;-70
2022/04/18 08:03:35;;;;;;;12.90;8.88;;;;;;;;;;5064772;28;20044;-70
2022/04/18 08:06:01;;;;;;;13.43;9.27;;;;;;;;;;5054962;28;20472;-70
2022/04/18 08:08:28;;;;;;;13.07;8.27;;;;;;;;;;5059679;28;20040;-70
2022/04/18 08:10:54;;;;;;;13.32;9.38;;;;;;;;;;5077645;28;20132;-70
2022/04/18 08:13:20;;;;;;;11.25;7.95;;;;;;;;;;5055918;28;20517;-70
2022/04/18 08:15:46;;;;;;;9.60;8.25;;;11.30;64.40;;;;;;5079579;28;20366;-70
2022/04/18 08:18:12;;;;;;;11.48;8.27;;;11.90;62.70;;;;;;5041518;28;20036;-70
2022/04/18 08:20:38;;;;;;;10.60;7.93;;;;;;;;;;5063075;28;20044;-70
2022/04/18 08:23:04;;;;;;;13.50;8.43;;;;;;;;;;5084148;28;20739;-70
2022/04/18 08:25:30;;;;;;;11.10;8.77;;;;;;;;;;5059681;28;20043;-71
2022/04/18 08:27:56;;;;;;;10.45;8.63;;;;;;;;;;5064516;28;20123;-70
2022/04/18 08:30:23;;;;;;;10.93;8.55;;;;;;;;;;5064884;28;20034;-73
2022/04/18 08:32:49;;;;;;;12.40;7.97;;;;;;;;;;5057315;28;20177;-70
2022/04/18 08:35:15;;;;;;;13.27;7.85;;;;;;;;;;5056067;28;20047;-70
2022/04/18 08:37:41;;;;;;;8.75;7.32;;;;;;;;;;5074977;28;20051;-71
2022/04/18 08:40:10;;;;;;;13.35;7.78;;;;;;;;;;5078155;28;20043;-71
2022/04/18 08:42:37;;;;;;;10.50;7.00;;;;;;;;;;5053579;28;20097;-71
2022/04/18 08:45:04;;;;;;;11.30;8.45;;;;;;;;;;5076712;28;20040;-71
2022/04/18 08:53:01;;;;;;;10.57;7.95;;;;;;;;;;5080218;28;20087;-71
2022/04/18 08:55:28;;;;;;;11.93;8.63;;;;;;;;;;5060174;28;20109;-70
2022/04/18 08:57:54;;;;;;;11.15;8.18;;;;;;;;;;5063423;28;20047;-71
2022/04/18 09:00:20;;;;;;;9.55;6.90;;;;;;;;;;5081803;28;20043;-70
2022/04/18 09:02:46;;;;;;;8.30;7.07;;;;;;;;;;5079047;28;20032;-70
2022/04/18 09:05:13;;;;;;;10.40;7.47;;;;;;;;;;5057921;28;20544;-70
2022/04/18 09:07:43;;;;;;;10.68;7.40;;;;;;;;;;5060828;28;20040;-71
2022/04/18 09:10:10;;;;;;;8.60;7.25;;;;;;;;;;5064787;28;20125;-71
2022/04/18 09:12:40;;;;;;;9.00;6.50;;;;;;;;;;5055124;28;20050;-70
2022/04/18 09:15:07;;;;;;;9.38;6.10;;;;;;;;;;5057239;28;20201;-70
2022/04/18 09:17:35;;;;;;;7.65;6.28;;;;;;;;;;5059264;28;20044;-70
2022/04/18 09:20:11;;;;;;;24.65;8.15;;;;;;;;;;5061464;28;20398;-70
2022/04/18 09:22:44;;;;;;;10.32;6.93;;;;;;;;;;5061319;28;20048;-70
2022/04/18 09:25:20;;;;;;;8.95;6.35;;;;;;;;;;5055890;28;20052;-70
2022/04/18 09:27:56;;;;;;;8.35;7.35;;;;;;;;;;5052521;28;20032;-70
2022/04/18 09:30:23;;;;;;;10.32;7.13;;;;;;;;;;5080948;28;20086;-69
2022/04/18 09:32:57;;;;;;;11.07;7.50;;;;;;;;;;5060782;28;20371;-69
2022/04/18 09:35:26;;;;;;;9.73;6.65;;;;;;;;;;5086200;28;20516;-70
2022/04/18 09:37:56;;;;;;;7.95;5.93;;;;;;;;;;5063217;28;20048;-69
2022/04/18 09:40:22;;;;;;;7.95;5.97;;;;;;;;;;5074648;28;20048;-69
2022/04/18 09:42:51;;;;;;;8.85;7.53;;;;;;;;;;5082198;28;20599;-70
2022/04/18 09:45:18;;;;;;;7.97;7.10;;;;;;;;;;5052797;28;20052;-70
2022/04/18 09:47:44;;;;;;;10.43;6.45;;;;;;;;;;5084847;28;20587;-70
2022/04/18 09:51:04;;;;;;;8.35;6.47;;;;;;;;;;5075459;28;20374;-70
2022/04/18 09:53:06;;;;;;;8.85;6.63;;;;;;;;;;5073141;28;20056;-70
2022/04/18 09:55:32;;;;;;;7.72;6.47;;;;;;;;;;5065778;28;20044;-70
2022/04/18 09:58:04;;;;;;;8.68;7.10;;;;;;;;;;5077853;28;20116;-69
2022/04/18 10:00:30;;;;;;;8.40;6.13;;;;;;;;;;5063952;28;20036;-70
2022/04/18 10:02:57;;;;;;;8.40;6.00;;;;;;;;;;5085569;28;20373;-70
2022/04/18 10:05:27;;;;;;;8.07;6.05;;;;;;;;;;5058038;28;20054;-69
2022/04/18 10:07:53;;;;;;;9.50;5.38;;;;;;;;;;5070537;28;20040;-70
2022/04/18 10:10:20;;;;;;;9.73;6.05;;;;;;;;;;5084565;28;20386;-70
2022/04/18 10:12:46;;;;;;;8.73;6.60;;;;;;;;;;5069320;28;20047;-70
2022/04/18 10:15:13;;;;;;;7.85;5.85;;;;;;;;;;5085171;28;20040;-70
2022/04/18 10:17:42;;;;;;;6.90;5.20;;;;;;;;;;5071958;28;20048;-70
2022/04/18 10:20:08;;;;;;;9.23;5.63;;;;;;;;;;5074821;28;20470;-69
2022/04/18 10:22:53;;;;;;;7.15;5.03;;;;;;;;;;5061199;28;20046;-70
2022/04/18 10:25:28;;;;;;;6.80;5.68;;;;;;;;;;5077804;28;20080;-70
2022/04/18 10:28:04;;;;;;;7.22;5.63;;;;;;;;;;5082883;28;20044;-70
2022/04/18 10:30:33;;;;;;;8.50;5.80;;;;;;;;;;5057608;28;20068;-69
2022/04/18 10:33:00;;;;;;;10.05;6.38;;;;;;;;;;5078249;28;20425;-70
2022/04/18 10:35:26;;;;;;;7.65;5.13;;;;;;;;;;5084934;28;20477;-70
2022/04/18 10:37:55;;;;;;;8.82;5.20;;;;;;;;;;5073870;28;20416;-69
2022/04/18 10:40:23;;;;;;;7.88;6.13;;;;;;;;;;5084874;28;20040;-70
2022/04/18 10:42:49;;;;;;;7.13;5.25;;;;;;;;;;5086944;28;20123;-70
2022/04/18 10:45:20;;;;;;;8.57;6.90;;;;;;;;;;5055381;28;20641;-70
2022/04/18 10:48:04;;;;;;;7.25;6.28;;;;;;;;;;5082718;28;20070;-70
2022/04/18 10:50:38;;;;;;;9.77;5.78;;;;;;;;;;5063685;28;20047;-70
2022/04/18 10:53:10;;;;;;;7.72;6.35;;;;;;;;;;5044593;28;20663;-70
2022/04/18 10:55:36;;;;;;;;;;;;;;;;;;5053620;28;20057;-70
2022/04/18 10:58:29;;;;;;;6.70;5.68;;;;;;;;;;5052990;28;20281;-70
2022/04/18 11:01:02;;;;;;;7.10;5.10;;;;;;;;;;5066960;28;20239;-70
2022/04/18 11:03:50;;;;;;;9.95;5.38;;;;;;;;;;5078881;28;20041;-69
2022/04/18 11:06:17;;;;;;;5.10;3.90;;;;;;;;;;5085133;28;20044;-70
2022/04/18 11:08:56;;;;;;;6.45;5.07;;;;;;;;;;5083003;28;20501;-70
2022/04/18 11:11:23;;;;;;;6.47;5.20;;;;;;;;;;5084558;28;20478;-70
2022/04/18 11:13:50;;;;;;;5.60;4.35;;;;;;;;;;5062838;28;20181;-69
2022/04/18 11:16:25;;;;;;;6.80;4.13;;;;;;;;;;5081422;28;20059;-70
2022/04/18 11:19:10;;;;;;;7.25;3.90;;;;;;;;;;5075814;28;20050;-70
2022/04/18 11:21:57;;;;;;;7.13;4.30;;;;;;;;;;5059548;28;20050;-70
2022/04/18 11:24:40;;;;;;;5.80;4.25;;;;;;;;;;5044344;28;20057;-69
2022/04/18 11:27:08;;;;;;;5.47;4.70;;;;;;;;;;5077008;28;20047;-70
2022/04/18 11:29:34;;;;;;;8.25;3.95;;;;;;;;;;5067982;28;20050;-70
2022/04/18 11:32:00;;;;;;;4.72;3.72;;;;;;;;;;5076231;28;20032;-70
2022/04/18 11:34:28;;;;;;;7.78;4.05;;;;;;;;;;5075116;28;20048;-70
2022/04/18 11:36:55;;;;;;;4.93;3.70;;;;;;;;;;5084784;28;20050;-69
2022/04/18 11:39:21;;;;;;;5.13;3.75;;;;;;;;;;5082991;28;20092;-70
2022/04/18 11:41:48;;;;;;;6.07;4.20;;;;;;;;;;5070476;28;20036;-70
2022/04/18 11:44:24;;;;;;;5.22;4.32;;;;;;;;;;5087057;28;20071;-69
2022/04/18 11:46:51;;;;;;;6.47;4.07;;;;;;;;;;5067974;28;20036;-69
2022/04/18 11:49:25;;;;;;;5.00;3.50;;;;;;;;;;5047693;28;20568;-69
2022/04/18 11:51:51;;;;;;;4.25;2.70;;;;;;;;;;5064998;28;20040;-70
2022/04/18 11:54:17;;;;;;;6.63;3.50;;;;;;;;;;5079803;28;20055;-70
2022/04/18 11:56:43;;;;;;;5.03;3.30;;;;;;;;;;5088647;28;20329;-70
2022/04/18 11:59:09;;;;;;;5.88;4.03;;;;;;;;;;5086384;28;20032;-70
2022/04/18 12:07:05;;;;;;;4.85;2.92;;;;;;;;;;5066388;28;20073;-70
2022/04/18 12:09:32;;;;;;;7.55;3.35;;;;;;;;;;5068305;28;20492;-70
2022/04/18 12:11:58;;;;;;;5.82;2.92;;;;;;;;;;5070276;28;20036;-70
2022/04/18 12:14:29;;;;;;;12.57;4.25;;;;;;;;;;5068200;28;20074;-70
2022/04/18 12:16:55;;;;;;;5.63;2.60;;;;;;;;;;5061357;28;20047;-69
2022/04/18 12:19:21;;;;;;;5.88;3.63;;;;;;;;;;5083646;28;20052;-70
2022/04/18 12:21:55;;;;;;;4.40;3.05;;;;;;;;;;5067478;28;20048;-70
2022/04/18 12:24:21;;;;;;;3.88;2.83;;;;;;;;;;5079881;28;20044;-70
2022/04/18 12:26:53;;;;;;;5.70;3.22;;;;;;;;;;5077342;28;20040;-70
2022/04/18 12:29:20;;;;;;;4.15;3.00;;;;;;;;;;5060380;28;20086;-71
2022/04/18 12:31:46;;;;;;;5.20;2.90;;;;;;;;;;5080749;28;20037;-71
2022/04/18 12:34:22;;;;;;;3.28;2.40;;;;;;;;;;5064522;28;20089;-71
2022/04/18 12:36:58;;;;;;;4.65;3.00;;;;;;;;;;5071942;28;20087;-71
2022/04/18 12:39:25;;;;;;;4.40;2.67;;;;;;;;;;5063715;28;20409;-71
2022/04/18 12:42:00;;;;;;;5.25;2.80;;;;;;;;;;5085674;28;20039;-71
2022/04/18 12:44:28;;;;;;;5.00;2.97;;;;;;;;;;5064817;28;20036;-71
2022/04/18 12:46:54;;;;;;;4.78;2.95;;;;;;;;;;5072071;28;20142;-71
2022/04/18 12:49:20;;;;;;;4.03;2.58;;;;;;;;;;5083205;28;20131;-71
2022/04/18 12:51:50;;;;;;;5.57;3.35;;;;;;;;;;5053107;28;20498;-71
2022/04/18 12:54:20;;;;;;;4.65;3.00;;;;;;;;;;5076969;28;20139;-71
2022/04/18 12:56:47;;;;;;;4.53;2.90;;;;;;;;;;5057496;28;20127;-71
2022/04/18 12:59:14;;;;;;;4.38;2.70;;;;;;;;;;5077229;28;20432;-70
2022/04/18 13:01:41;;;;;;;3.85;2.30;;;;;;;;;;5079623;28;20504;-70
2022/04/18 13:04:26;;;;;;;3.67;2.60;;;;;;;;;;5083928;28;20054;-71
2022/04/18 13:07:02;;;;;;;4.10;2.70;;;;;;;;;;5050956;28;20039;-70
2022/04/18 13:09:29;;;;;;;3.53;2.35;;;;;;;;;;5068836;28;20037;-70
2022/04/18 13:12:08;;;;;;;3.83;2.72;;;;;;;;;;5076855;28;20144;-70
2022/04/18 13:14:37;;;;;;;4.03;2.92;;;;;;;;;;5073275;28;20047;-70
2022/04/18 13:17:07;;;;;;;3.17;2.35;;;;;;;;;;5078570;28;20040;-71
2022/04/18 13:19:33;;;;;;;4.72;3.03;;;;;;;;;;5070790;28;20029;-70
2022/04/18 13:22:00;;;;;;;3.60;2.65;;;;;;;;;;5075018;28;20032;-70
2022/04/18 13:24:26;;;;;;;3.53;2.40;;;;;;;;;;5062912;28;20032;-70
2022/04/18 13:26:52;;;;;;;3.03;2.38;;;;;;;;;;5065978;28;20036;-71
2022/04/18 13:29:18;;;;;;;3.58;2.25;;;;;;;;;;5086567;28;20043;-71
2022/04/18 13:31:44;;;;;;;3.45;2.25;;;;;;;;;;5084771;28;20494;-71
2022/04/18 13:34:10;;;;;;;4.18;2.42;;;;;;;;;;5083229;28;20127;-71
2022/04/18 13:36:37;;;;;;;4.15;2.60;;;;;;;;;;5063789;28;20131;-71
2022/04/18 13:39:05;;;;;;;2.80;2.20;;;;;;;;;;5084260;28;20036;-71
2022/04/18 13:41:31;;;;;;;2.80;2.22;;;;;;;;;;5067461;28;20078;-71
2022/04/18 13:43:58;;;;;;;7.35;2.95;;;;;;;;;;5064569;28;20084;-71
2022/04/18 13:46:24;;;;;;;6.20;3.05;;;;;;;;;;5064107;28;20028;-70
2022/04/18 13:48:50;;;;;;;3.58;2.97;;;;;;;;;;5082121;28;20123;-70
2022/04/18 13:51:20;;;;;;;3.75;2.85;;;;;;;;;;5075973;28;20038;-70
2022/04/18 13:53:48;;;;;;;3.95;2.20;;;;;;;;;;5085264;28;20056;-70
2022/04/18 13:56:14;;;;;;;4.22;2.45;;;;;;;;;;5074539;28;20519;-71
2022/04/18 13:58:40;;;;;;;5.43;2.60;;;;;;;;;;5063981;28;20036;-70
2022/04/18 14:01:07;;;;;;;3.17;2.65;;;;;;;;;;5057791;28;20044;-71
2022/04/18 14:03:33;;;;;;;3.60;2.55;;;;;;;;;;5079490;28;20064;-70
2022/04/18 14:06:02;;;;;;;3.95;2.28;;;;;;;;;;5086679;28;20502;-69
2022/04/18 14:08:28;;;;;;;4.20;2.83;;;;;;;;;;5088841;28;20043;-70
2022/04/18 14:10:55;;;;;;;4.38;2.88;;;;;;;;;;5077425;28;20040;-69
2022/04/18 14:13:21;;;;;;;3.90;2.40;;;;;;;;;;5089485;28;20043;-70
2022/04/18 14:21:16;;;;;;;4.40;2.30;;;;;;;;;;5062719;28;20050;-70
2022/04/18 14:23:43;;;;;;;6.90;2.22;;;;;;;;;;5082957;28;20571;-70
2022/04/18 14:26:09;;;;;;;3.85;2.63;;;;;;;;;;5081872;28;20075;-70
2022/04/18 14:28:35;;;;;;;3.13;2.17;;;;;;;;;;5081584;28;20032;-69
2022/04/18 14:31:01;;;;;;;4.78;2.72;;;;;;;;;;5076807;28;20037;-70
2022/04/18 14:33:27;;;;;;;4.97;3.15;;;;;;;;;;5056977;28;20040;-70
2022/04/18 14:35:54;;;;;;;3.75;2.95;;;;;;;;;;5064490;28;20043;-70
2022/04/18 14:38:20;;;;;;;5.72;3.55;;;;;;;;;;5078639;28;20036;-70